Time,TemperatureF,DewpointF,PressureIn,WindDirection,WindDirectionDegrees,WindSpeedMPH,WindSpeedGustMPH,Humidity,HourlyPrecipIn,Conditions,Clouds,dailyrainin,SoftwareType,DateUTC
2013-04-04 00:00:00,46.2,38.4,29.99,SSW,202,0.0,0.0,74,0.00,RA,FEW,0.00,WeatherDisplay:10.37,2013-04-04 07:00:00,
2013-04-04 00:05:00,46.0,38.2,29.99,SSW,202,0.0,0.0,74,0.00,RA,FEW,0.00,WeatherDisplay:10.37,2013-04-04 07:05:00,
2013-04-04 00:10:00,46.0,38.6,29.98,SSW,202,0.0,0.0,75,0.00,CLR,FEW,0.00,WeatherDisplay:10.37,2013-04-04 07:10:00,
2013-04-04 00:15:00,45.7,38.2,29.98,SSW,202,0.0,0.0,75,0.00,CLR,FEW,0.00,WeatherDisplay:10.37,2013-04-04 07:15:00,
2013-04-04 00:20:00,45.5,38.0,29.98,SSW,202,0.0,0.0,75,0.00,CLR,FEW,0.00,WeatherDisplay:10.37,2013-04-04 07:20:00,
2013-04-04 00:25:00,45.3,37.9,29.98,SSW,202,0.0,0.0,75,0.00,CLR,FEW,0.00,WeatherDisplay:10.37,2013-04-04 07:25:00,
2013-04-04 00:30:00,45.3,37.9,29.98,SSW,202,0.0,0.0,75,0.00,CLR,FEW,0.00,WeatherDisplay:10.37,2013-04-04 07:30:00,
2013-04-04 00:35:00,45.1,38.0,29.98,SSW,202,0.0,0.0,76,0.00,CLR,FEW,0.00,WeatherDisplay:10.37,2013-04-04 07:35:00,
2013-04-04 00:40:00,45.1,38.0,29.98,SSW,202,0.0,0.0,76,0.00,CLR,FEW,0.00,WeatherDisplay:10.37,2013-04-04 07:40:00,
2013-04-04 00:45:00,45.1,38.0,29.99,SSW,202,0.0,0.0,76,0.00,CLR,FEW,0.00,WeatherDisplay:10.37,2013-04-04 07:45:00,
2013-04-04 00:50:00,45.0,37.8,29.99,SSW,202,0.0,0.0,76,0.00,CLR,FEW,0.00,WeatherDisplay:10.37,2013-04-04 07:50:00,
2013-04-04 00:55:00,44.8,37.7,29.99,SSW,202,0.0,0.0,76,0.00,CLR,FEW,0.00,WeatherDisplay:10.37,2013-04-04 07:55:00,
2013-04-04 01:00:00,44.8,37.7,29.98,SSW,202,0.0,0.0,76,0.00,CLR,FEW,0.00,WeatherDisplay:10.37,2013-04-04 08:00:00,
2013-04-04 01:05:00,44.8,38.0,29.99,SSW,202,0.0,0.0,77,0.00,CLR,FEW,0.00,WeatherDisplay:10.37,2013-04-04 08:05:00,
2013-04-04 01:10:00,44.8,38.0,29.99,SSW,202,0.0,0.0,77,0.00,CLR,FEW,0.00,WeatherDisplay:10.37,2013-04-04 08:10:00,
2013-04-04 01:15:00,44.6,37.8,29.99,SSW,202,0.0,0.0,77,0.00,CLR,FEW,0.00,WeatherDisplay:10.37,2013-04-04 08:15:00,
2013-04-04 01:20:00,44.4,37.7,29.99,SSW,202,0.0,0.0,77,0.00,CLR,FEW,0.00,WeatherDisplay:10.37,2013-04-04 08:20:00,
2013-04-04 01:25:00,44.4,37.7,29.98,SSW,202,0.0,0.0,77,0.00,CLR,FEW,0.00,WeatherDisplay:10.37,2013-04-04 08:25:00,
2013-04-04 01:30:00,44.4,38.0,29.98,SSW,202,0.0,0.0,78,0.00,CLR,FEW,0.00,WeatherDisplay:10.37,2013-04-04 08:30:00,
2013-04-04 01:35:00,44.4,38.0,29.98,SSW,202,0.0,0.0,78,0.00,CLR,FEW,0.00,WeatherDisplay:10.37,2013-04-04 08:35:00,
2013-04-04 01:40:00,44.4,38.0,29.98,SSW,202,0.0,0.0,78,0.00,CLR,FEW,0.00,WeatherDisplay:10.37,2013-04-04 08:40:00,
2013-04-04 01:45:00,44.4,38.0,29.98,SSW,202,0.0,0.0,78,0.00,CLR,FEW,0.00,WeatherDisplay:10.37,2013-04-04 08:45:00,
2013-04-04 01:50:00,44.2,37.8,29.98,SSW,202,0.0,0.0,78,0.00,CLR,FEW,0.00,WeatherDisplay:10.37,2013-04-04 08:50:00,
2013-04-04 01:55:00,44.2,38.1,29.98,SSW,202,0.0,0.0,79,0.00,CLR,FEW,0.00,WeatherDisplay:10.37,2013-04-04 08:55:00,
2013-04-04 02:00:00,44.2,38.1,29.98,SSW,202,0.0,0.0,79,0.00,CLR,FEW,0.00,WeatherDisplay:10.37,2013-04-04 09:00:00,
2013-04-04 02:05:00,44.2,38.1,29.98,SSW,202,0.0,0.0,79,0.00,CLR,FEW,0.00,WeatherDisplay:10.37,2013-04-04 09:05:00,
2013-04-04 02:10:00,44.2,38.1,29.98,SSW,202,0.0,0.0,79,0.00,CLR,FEW,0.00,WeatherDisplay:10.37,2013-04-04 09:10:00,
2013-04-04 02:15:00,44.2,38.1,29.98,SSW,202,0.0,0.0,79,0.00,CLR,FEW,0.00,WeatherDisplay:10.37,2013-04-04 09:15:00,
2013-04-04 02:20:00,44.2,38.1,29.97,SSW,202,0.0,0.0,79,0.00,CLR,FEW,0.00,WeatherDisplay:10.37,2013-04-04 09:20:00,
2013-04-04 02:25:00,44.1,38.0,29.97,SSW,202,0.0,0.0,79,0.00,CLR,FEW,0.00,WeatherDisplay:10.37,2013-04-04 09:25:00,
2013-04-04 02:30:00,44.1,38.0,29.97,SSW,202,0.0,0.0,79,0.00,CLR,FEW,0.00,WeatherDisplay:10.37,2013-04-04 09:30:00,
2013-04-04 02:35:00,43.9,37.8,29.98,SSW,202,0.0,0.0,79,0.00,CLR,FEW,0.00,WeatherDisplay:10.37,2013-04-04 09:35:00,
2013-04-04 02:40:00,43.9,37.8,29.98,SSW,202,0.0,0.0,79,0.00,CLR,FEW,0.00,WeatherDisplay:10.37,2013-04-04 09:40:00,
2013-04-04 02:45:00,43.9,37.8,29.98,SSW,202,0.0,0.0,79,0.00,CLR,FEW,0.00,WeatherDisplay:10.37,2013-04-04 09:45:00,
2013-04-04 02:50:00,43.9,37.8,29.97,SSW,202,0.0,0.0,79,0.00,CLR,FEW,0.00,WeatherDisplay:10.37,2013-04-04 09:50:00,
2013-04-04 02:55:00,43.9,37.8,29.97,SSW,202,0.0,0.0,79,0.00,CLR,FEW,0.00,WeatherDisplay:10.37,2013-04-04 09:55:00,
2013-04-04 03:00:00,43.9,37.8,29.98,SSW,202,0.0,0.0,79,0.00,CLR,FEW,0.00,WeatherDisplay:10.37,2013-04-04 10:00:00,
2013-04-04 03:05:00,43.9,37.8,29.97,SSW,202,0.0,0.0,79,0.00,CLR,FEW,0.00,WeatherDisplay:10.37,2013-04-04 10:05:00,
2013-04-04 03:10:00,43.7,37.9,29.97,SSW,202,0.0,0.0,80,0.00,CLR,FEW,0.00,WeatherDisplay:10.37,2013-04-04 10:10:00,
2013-04-04 03:15:00,43.7,37.9,29.97,SSW,202,0.0,0.0,80,0.00,CLR,FEW,0.00,WeatherDisplay:10.37,2013-04-04 10:15:00,
2013-04-04 03:20:00,43.5,37.8,29.97,SSW,202,0.0,0.0,80,0.00,CLR,FEW,0.00,WeatherDisplay:10.37,2013-04-04 10:20:00,
2013-04-04 03:25:00,43.5,37.8,29.97,SSW,202,0.0,0.0,80,0.00,CLR,FEW,0.00,WeatherDisplay:10.37,2013-04-04 10:25:00,
2013-04-04 03:31:00,43.3,37.6,29.97,SSW,202,0.0,0.0,80,0.00,CLR,FEW,0.00,WeatherDisplay:10.37,2013-04-04 10:31:00,
2013-04-04 03:36:00,43.3,37.6,29.97,SSW,202,0.0,0.0,80,0.00,CLR,FEW,0.00,WeatherDisplay:10.37,2013-04-04 10:36:00,
2013-04-04 03:41:00,43.2,37.4,29.96,SSW,202,0.0,0.0,80,0.00,CLR,FEW,0.00,WeatherDisplay:10.37,2013-04-04 10:41:00,
2013-04-04 03:46:00,43.0,37.2,29.97,SSW,202,0.0,0.0,80,0.00,CLR,FEW,0.00,WeatherDisplay:10.37,2013-04-04 10:46:00,
2013-04-04 03:51:00,43.2,37.4,29.97,SSW,202,0.0,0.0,80,0.00,CLR,FEW,0.00,WeatherDisplay:10.37,2013-04-04 10:51:00,
2013-04-04 03:56:00,43.0,37.5,29.97,SSW,202,0.0,0.0,81,0.00,CLR,FEW,0.00,WeatherDisplay:10.37,2013-04-04 10:56:00,
2013-04-04 04:01:00,43.2,37.7,29.97,SSW,202,0.0,0.0,81,0.00,CLR,FEW,0.00,WeatherDisplay:10.37,2013-04-04 11:01:00,
2013-04-04 04:06:00,43.2,37.7,29.96,SSW,202,0.0,0.0,81,0.00,CLR,FEW,0.00,WeatherDisplay:10.37,2013-04-04 11:06:00,
2013-04-04 04:11:00,43.2,37.7,29.96,SSW,202,0.0,0.0,81,0.00,CLR,FEW,0.00,WeatherDisplay:10.37,2013-04-04 11:11:00,
2013-04-04 04:16:00,43.2,37.7,29.96,SSW,202,0.0,0.0,81,0.00,CLR,FEW,0.00,WeatherDisplay:10.37,2013-04-04 11:16:00,
2013-04-04 04:21:00,43.3,37.9,29.96,SSW,202,0.0,0.0,81,0.00,CLR,FEW,0.00,WeatherDisplay:10.37,2013-04-04 11:21:00,
2013-04-04 04:26:00,43.3,37.9,29.97,SSW,202,0.0,0.0,81,0.00,CLR,FEW,0.00,WeatherDisplay:10.37,2013-04-04 11:26:00,
2013-04-04 04:31:00,43.3,37.9,29.97,SSW,202,0.0,0.0,81,0.00,CLR,FEW,0.00,WeatherDisplay:10.37,2013-04-04 11:31:00,
2013-04-04 04:36:00,43.3,38.2,29.95,SSW,202,0.0,0.0,82,0.00,CLR,FEW,0.00,WeatherDisplay:10.37,2013-04-04 11:36:00,
2013-04-04 04:41:00,43.3,38.2,29.95,SSW,202,0.0,0.0,82,0.00,CLR,FEW,0.00,WeatherDisplay:10.37,2013-04-04 11:41:00,
2013-04-04 04:47:00,43.3,38.2,29.95,SSW,202,0.0,0.0,82,0.00,CLR,FEW,0.00,WeatherDisplay:10.37,2013-04-04 11:47:00,
2013-04-04 04:52:00,43.3,38.2,29.95,SSW,202,0.0,0.0,82,0.00,CLR,FEW,0.00,WeatherDisplay:10.37,2013-04-04 11:52:00,
2013-04-04 04:57:00,43.3,38.2,29.95,SSW,202,0.0,0.0,82,0.00,CLR,FEW,0.00,WeatherDisplay:10.37,2013-04-04 11:57:00,
2013-04-04 05:02:00,43.3,38.2,29.95,SSW,202,0.0,0.0,82,0.00,CLR,FEW,0.00,WeatherDisplay:10.37,2013-04-04 12:02:00,
2013-04-04 05:07:00,43.3,38.2,29.94,SSW,202,0.0,0.0,82,0.00,CLR,FEW,0.00,WeatherDisplay:10.37,2013-04-04 12:07:00,
2013-04-04 05:12:00,43.0,37.9,29.94,SSW,202,0.0,0.0,82,0.00,CLR,FEW,0.00,WeatherDisplay:10.37,2013-04-04 12:12:00,
2013-04-04 05:17:00,43.0,37.9,29.94,SSW,202,0.0,0.0,82,0.00,CLR,FEW,0.00,WeatherDisplay:10.37,2013-04-04 12:17:00,
2013-04-04 05:22:00,43.0,37.9,29.94,SSW,202,0.0,0.0,82,0.00,CLR,FEW,0.00,WeatherDisplay:10.37,2013-04-04 12:22:00,
2013-04-04 05:27:00,42.8,37.7,29.95,SSW,202,0.0,0.0,82,0.00,CLR,FEW,0.00,WeatherDisplay:10.37,2013-04-04 12:27:00,
2013-04-04 05:32:00,42.6,37.5,29.95,SSW,202,0.0,0.0,82,0.00,CLR,FEW,0.00,WeatherDisplay:10.37,2013-04-04 12:32:00,
2013-04-04 05:37:00,42.6,37.5,29.94,SSW,202,0.0,0.0,82,0.00,CLR,FEW,0.00,WeatherDisplay:10.37,2013-04-04 12:37:00,
2013-04-04 05:42:00,42.6,37.5,29.94,SSW,202,0.0,0.0,82,0.00,CLR,FEW,0.00,WeatherDisplay:10.37,2013-04-04 12:42:00,
2013-04-04 05:47:00,42.6,37.5,29.94,SSW,202,0.0,0.0,82,0.00,CLR,FEW,0.00,WeatherDisplay:10.37,2013-04-04 12:47:00,
2013-04-04 05:52:00,42.6,37.5,29.94,SSW,202,0.0,0.0,82,0.00,CLR,FEW,0.00,WeatherDisplay:10.37,2013-04-04 12:52:00,
2013-04-04 05:57:00,42.4,37.6,29.94,SSW,202,0.0,0.0,83,0.00,CLR,FEW,0.00,WeatherDisplay:10.37,2013-04-04 12:57:00,
2013-04-04 06:02:00,42.4,37.3,29.94,SSW,202,0.0,0.0,82,0.00,CLR,FEW,0.00,WeatherDisplay:10.37,2013-04-04 13:02:00,
2013-04-04 06:07:00,42.4,37.6,29.93,SSW,202,0.0,0.0,83,0.00,CLR,FEW,0.00,WeatherDisplay:10.37,2013-04-04 13:07:00,
2013-04-04 06:12:00,42.4,37.6,29.93,SSW,202,0.0,0.0,83,0.00,CLR,FEW,0.00,WeatherDisplay:10.37,2013-04-04 13:12:00,
2013-04-04 06:17:00,42.4,37.6,29.93,SSW,202,0.0,0.0,83,0.00,CLR,FEW,0.00,WeatherDisplay:10.37,2013-04-04 13:17:00,
2013-04-04 06:22:00,42.4,37.6,29.93,SSW,202,0.0,0.0,83,0.00,CLR,FEW,0.00,WeatherDisplay:10.37,2013-04-04 13:22:00,
2013-04-04 06:27:00,42.6,37.8,29.93,SSW,202,0.0,0.0,83,0.00,CLR,FEW,0.00,WeatherDisplay:10.37,2013-04-04 13:27:00,
2013-04-04 06:32:00,42.6,37.8,29.93,SSW,202,0.0,0.0,83,0.00,CLR,FEW,0.00,WeatherDisplay:10.37,2013-04-04 13:32:00,
2013-04-04 06:37:00,42.6,37.8,29.93,SSW,202,0.0,0.0,83,0.00,CLR,FEW,0.00,WeatherDisplay:10.37,2013-04-04 13:37:00,
2013-04-04 06:43:00,42.6,38.1,29.93,SSW,202,0.0,0.0,84,0.00,CLR,FEW,0.00,WeatherDisplay:10.37,2013-04-04 13:43:00,
2013-04-04 06:48:00,42.6,38.1,29.92,SSW,202,0.0,0.0,84,0.00,CLR,FEW,0.00,WeatherDisplay:10.37,2013-04-04 13:48:00,
2013-04-04 06:53:00,43.0,38.5,29.92,SSW,202,0.0,0.0,84,0.00,CLR,FEW,0.00,WeatherDisplay:10.37,2013-04-04 13:53:00,
2013-04-04 06:58:00,43.0,38.5,29.92,SSW,202,0.0,0.0,84,0.00,CLR,FEW,0.00,WeatherDisplay:10.37,2013-04-04 13:58:00,
2013-04-04 07:03:00,43.0,38.5,29.92,SSW,202,0.0,0.0,84,0.00,CLR,FEW,0.00,WeatherDisplay:10.37,2013-04-04 14:03:00,
2013-04-04 07:08:00,43.3,38.8,29.92,SSW,202,0.0,0.0,84,0.00,CLR,FEW,0.00,WeatherDisplay:10.37,2013-04-04 14:08:00,
2013-04-04 07:13:00,43.5,39.0,29.92,SSW,202,0.0,0.0,84,0.00,CLR,FEW,0.00,WeatherDisplay:10.37,2013-04-04 14:13:00,
2013-04-04 07:18:00,43.7,39.2,29.92,SSW,202,0.0,0.0,84,0.00,CLR,FEW,0.00,WeatherDisplay:10.37,2013-04-04 14:18:00,
2013-04-04 07:23:00,44.2,39.7,29.92,SSW,202,0.0,0.0,84,0.00,CLR,FEW,0.00,WeatherDisplay:10.37,2013-04-04 14:23:00,
2013-04-04 07:28:00,44.6,40.1,29.92,SSW,202,0.0,0.0,84,0.00,CLR,FEW,0.00,WeatherDisplay:10.37,2013-04-04 14:28:00,
2013-04-04 07:33:00,45.1,40.6,29.92,SSW,202,0.0,0.0,84,0.00,CLR,FEW,0.00,WeatherDisplay:10.37,2013-04-04 14:33:00,
2013-04-04 07:38:00,45.5,40.9,29.91,SSW,202,0.0,0.0,84,0.00,CLR,FEW,0.00,WeatherDisplay:10.37,2013-04-04 14:38:00,
2013-04-04 07:43:00,45.7,40.8,29.91,SSW,202,0.0,0.0,83,0.00,CLR,FEW,0.00,WeatherDisplay:10.37,2013-04-04 14:43:00,
2013-04-04 07:48:00,46.8,41.9,29.91,SSW,202,0.0,0.0,83,0.00,CLR,FEW,0.00,WeatherDisplay:10.37,2013-04-04 14:48:00,
2013-04-04 07:53:00,47.3,42.4,29.91,SSW,202,0.0,0.0,83,0.00,CLR,FEW,0.00,WeatherDisplay:10.37,2013-04-04 14:53:00,
2013-04-04 07:58:00,48.4,43.1,29.91,SSW,202,0.0,0.0,82,0.00,CLR,FEW,0.00,WeatherDisplay:10.37,2013-04-04 14:58:00,
2013-04-04 08:03:00,49.6,44.0,29.91,SSW,202,0.0,0.0,81,0.00,CLR,FEW,0.00,WeatherDisplay:10.37,2013-04-04 15:03:00,
2013-04-04 08:08:00,49.8,43.9,29.90,SSW,202,0.0,0.0,80,0.00,CLR,FEW,0.00,WeatherDisplay:10.37,2013-04-04 15:08:00,
2013-04-04 08:13:00,49.8,43.6,29.90,SSW,202,0.0,0.0,79,0.00,CLR,FEW,0.00,WeatherDisplay:10.37,2013-04-04 15:13:00,
2013-04-04 08:18:00,50.0,43.4,29.90,SSW,202,0.0,0.0,78,0.00,CLR,FEW,0.00,WeatherDisplay:10.37,2013-04-04 15:18:00,
2013-04-04 08:24:00,50.2,43.2,29.90,SSW,202,0.0,0.0,77,0.00,CLR,FEW,0.00,WeatherDisplay:10.37,2013-04-04 15:24:00,
2013-04-04 08:29:00,50.2,43.2,29.90,SSW,202,0.0,0.0,77,0.00,CLR,FEW,0.00,WeatherDisplay:10.37,2013-04-04 15:29:00,
2013-04-04 08:35:00,50.5,43.6,29.90,SSW,202,0.0,0.0,77,0.00,CLR,FEW,0.00,WeatherDisplay:10.37,2013-04-04 15:35:00,
2013-04-04 08:40:00,52.2,44.8,29.89,SSW,202,0.0,0.0,76,0.00,CLR,FEW,0.00,WeatherDisplay:10.37,2013-04-04 15:40:00,
2013-04-04 08:45:00,52.5,44.8,29.89,SSW,202,0.0,0.0,75,0.00,CLR,FEW,0.00,WeatherDisplay:10.37,2013-04-04 15:45:00,
2013-04-04 08:50:00,52.9,45.2,29.89,SSW,202,0.0,0.0,75,0.00,CLR,FEW,0.00,WeatherDisplay:10.37,2013-04-04 15:50:00,
2013-04-04 08:55:00,53.2,45.2,29.88,SSW,202,0.0,0.0,74,0.00,CLR,FEW,0.00,WeatherDisplay:10.37,2013-04-04 15:55:00,
2013-04-04 09:00:00,53.6,45.2,29.88,SSW,202,0.0,0.0,73,0.00,CLR,FEW,0.00,WeatherDisplay:10.37,2013-04-04 16:00:00,
2013-04-04 09:05:00,54.0,45.1,29.88,SSW,202,0.0,0.0,72,0.00,CLR,FEW,0.00,WeatherDisplay:10.37,2013-04-04 16:05:00,
2013-04-04 09:10:00,53.4,44.2,29.88,SSW,202,0.0,0.0,71,0.00,CLR,FEW,0.00,WeatherDisplay:10.37,2013-04-04 16:10:00,
2013-04-04 09:15:00,53.8,45.0,29.88,SSW,202,0.0,0.0,72,0.00,CLR,FEW,0.00,WeatherDisplay:10.37,2013-04-04 16:15:00,
2013-04-04 09:20:00,53.8,44.6,29.88,SSW,202,0.0,0.0,71,0.00,CLR,FEW,0.00,WeatherDisplay:10.37,2013-04-04 16:20:00,
2013-04-04 09:25:00,53.2,44.1,29.88,SSW,202,0.0,0.0,71,0.00,CLR,FEW,0.00,WeatherDisplay:10.37,2013-04-04 16:25:00,
2013-04-04 09:30:00,52.9,43.7,29.88,SSW,202,0.0,0.0,71,0.00,CLR,FEW,0.00,WeatherDisplay:10.37,2013-04-04 16:30:00,
2013-04-04 09:35:00,52.3,43.2,29.88,SSW,202,0.0,0.0,71,0.00,CLR,FEW,0.00,WeatherDisplay:10.37,2013-04-04 16:35:00,
2013-04-04 09:40:00,52.2,43.0,29.87,SSW,202,0.0,0.0,71,0.00,CLR,FEW,0.00,WeatherDisplay:10.37,2013-04-04 16:40:00,
2013-04-04 09:45:00,52.2,43.0,29.87,SSW,202,0.0,0.0,71,0.00,CLR,FEW,0.00,WeatherDisplay:10.37,2013-04-04 16:45:00,
2013-04-04 09:50:00,52.9,43.7,29.87,SSW,202,0.0,0.0,71,0.00,CLR,FEW,0.00,WeatherDisplay:10.37,2013-04-04 16:50:00,
2013-04-04 09:55:00,53.2,44.1,29.87,SSW,202,0.0,0.0,71,0.00,CLR,FEW,0.00,WeatherDisplay:10.37,2013-04-04 16:55:00,
2013-04-04 10:00:00,53.4,43.9,29.87,SSW,202,0.0,0.0,70,0.00,CLR,FEW,0.00,WeatherDisplay:10.37,2013-04-04 17:00:00,
2013-04-04 10:06:00,53.4,43.9,29.86,SSW,202,0.0,0.0,70,0.00,CLR,FEW,0.00,WeatherDisplay:10.37,2013-04-04 17:06:00,
2013-04-04 10:11:00,53.8,44.2,29.86,SSW,202,0.0,0.0,70,0.00,CLR,FEW,0.00,WeatherDisplay:10.37,2013-04-04 17:11:00,
2013-04-04 10:16:00,54.9,44.9,29.86,SSW,202,0.0,0.0,69,0.00,CLR,FEW,0.00,WeatherDisplay:10.37,2013-04-04 17:16:00,
2013-04-04 10:21:00,55.6,45.2,29.85,SSW,202,0.0,0.0,68,0.00,CLR,FEW,0.00,WeatherDisplay:10.37,2013-04-04 17:21:00,
2013-04-04 10:26:00,55.9,45.1,29.86,SSW,202,0.0,0.0,67,0.00,CLR,FEW,0.00,WeatherDisplay:10.37,2013-04-04 17:26:00,
2013-04-04 10:31:00,56.7,45.8,29.85,SSW,202,0.0,0.0,67,0.00,CLR,FEW,0.00,WeatherDisplay:10.37,2013-04-04 17:31:00,
2013-04-04 10:36:00,56.7,45.4,29.85,SSW,202,0.0,0.0,66,0.00,CLR,FEW,0.00,WeatherDisplay:10.37,2013-04-04 17:36:00,
2013-04-04 10:41:00,56.5,44.9,29.85,SSW,202,0.0,0.0,65,0.00,CLR,FEW,0.00,WeatherDisplay:10.37,2013-04-04 17:41:00,
2013-04-04 10:46:00,56.3,44.7,29.85,SSW,202,0.0,0.0,65,0.00,CLR,FEW,0.00,WeatherDisplay:10.37,2013-04-04 17:46:00,
2013-04-04 10:51:00,56.1,44.5,29.85,SSW,202,0.0,0.0,65,0.00,CLR,FEW,0.00,WeatherDisplay:10.37,2013-04-04 17:51:00,
2013-04-04 10:57:00,56.3,44.7,29.84,SSW,202,0.0,0.0,65,0.00,CLR,FEW,0.00,WeatherDisplay:10.37,2013-04-04 17:57:00,
2013-04-04 11:02:00,56.5,44.9,29.84,SSW,202,0.0,0.0,65,0.00,CLR,FEW,0.00,WeatherDisplay:10.37,2013-04-04 18:02:00,
2013-04-04 11:07:00,57.0,45.0,29.83,SSW,202,0.0,0.0,64,0.00,CLR,FEW,0.00,WeatherDisplay:10.37,2013-04-04 18:07:00,
2013-04-04 11:12:00,57.7,45.6,29.83,SSW,202,0.0,0.0,64,0.00,CLR,FEW,0.00,WeatherDisplay:10.37,2013-04-04 18:12:00,
2013-04-04 11:17:00,57.9,45.4,29.84,SSW,202,0.0,0.0,63,0.00,CLR,FEW,0.00,WeatherDisplay:10.37,2013-04-04 18:17:00,
2013-04-04 11:22:00,57.6,45.1,29.84,SSW,202,0.0,0.0,63,0.00,CLR,FEW,0.00,WeatherDisplay:10.37,2013-04-04 18:22:00,
2013-04-04 11:27:00,57.4,44.9,29.82,SSW,202,0.0,0.0,63,0.00,CLR,FEW,0.00,WeatherDisplay:10.37,2013-04-04 18:27:00,
2013-04-04 11:32:00,57.4,45.3,29.82,SSW,202,0.0,0.0,64,0.00,CLR,FEW,0.00,WeatherDisplay:10.37,2013-04-04 18:32:00,
2013-04-04 11:37:00,57.6,45.5,29.82,SSW,202,0.0,0.0,64,0.00,CLR,FEW,0.00,WeatherDisplay:10.37,2013-04-04 18:37:00,
2013-04-04 11:42:00,57.9,45.8,29.81,SSW,202,0.0,0.0,64,0.00,CLR,FEW,0.00,WeatherDisplay:10.37,2013-04-04 18:42:00,
2013-04-04 11:47:00,58.3,46.2,29.80,SSW,202,0.0,0.0,64,0.00,CLR,FEW,0.00,WeatherDisplay:10.37,2013-04-04 18:47:00,
2013-04-04 11:52:00,58.8,46.7,29.80,SSW,202,6.0,6.0,64,0.00,CLR,FEW,0.00,WeatherDisplay:10.37,2013-04-04 18:52:00,
2013-04-04 11:57:00,58.8,46.2,29.80,SSW,202,0.0,0.0,63,0.00,CLR,FEW,0.00,WeatherDisplay:10.37,2013-04-04 18:57:00,
2013-04-04 12:02:00,58.8,46.2,29.80,SSW,202,0.0,0.0,63,0.00,CLR,FEW,0.00,WeatherDisplay:10.37,2013-04-04 19:02:00,
2013-04-04 12:07:00,58.8,46.2,29.79,SSW,202,0.0,0.0,63,0.00,CLR,FEW,0.00,WeatherDisplay:10.37,2013-04-04 19:07:00,
2013-04-04 12:12:00,58.8,45.8,29.79,SSW,202,0.0,0.0,62,0.00,CLR,FEW,0.00,WeatherDisplay:10.37,2013-04-04 19:12:00,
2013-04-04 12:17:00,58.6,45.7,29.78,SSW,202,0.0,0.0,62,0.00,CLR,FEW,0.00,WeatherDisplay:10.37,2013-04-04 19:17:00,
2013-04-04 12:22:00,58.8,46.2,29.78,SSW,202,0.0,0.0,63,0.00,CLR,FEW,0.00,WeatherDisplay:10.37,2013-04-04 19:22:00,
2013-04-04 12:27:00,58.8,46.2,29.78,SE,135,0.0,0.0,63,0.00,CLR,FEW,0.00,WeatherDisplay:10.37,2013-04-04 19:27:00,
2013-04-04 12:32:00,58.8,45.8,29.77,SE,135,0.0,0.0,62,0.00,CLR,FEW,0.00,WeatherDisplay:10.37,2013-04-04 19:32:00,
2013-04-04 12:37:00,58.8,45.8,29.77,SE,135,0.0,0.0,62,0.00,CLR,FEW,0.00,WeatherDisplay:10.37,2013-04-04 19:37:00,
2013-04-04 12:42:00,59.2,46.2,29.76,SE,135,0.0,0.0,62,0.00,CLR,FEW,0.00,WeatherDisplay:10.37,2013-04-04 19:42:00,
2013-04-04 12:47:00,59.5,46.5,29.76,SE,135,0.0,0.0,62,0.00,CLR,FEW,0.00,WeatherDisplay:10.37,2013-04-04 19:47:00,
2013-04-04 12:52:00,59.7,46.2,29.76,SE,135,0.0,0.0,61,0.00,CLR,FEW,0.00,WeatherDisplay:10.37,2013-04-04 19:52:00,
2013-04-04 12:57:00,59.9,46.4,29.76,SE,135,0.0,0.0,61,0.00,CLR,FEW,0.00,WeatherDisplay:10.37,2013-04-04 19:57:00,
2013-04-04 13:03:00,60.1,46.6,29.76,South,180,0.0,0.0,61,0.00,CLR,FEW,0.00,WeatherDisplay:10.37,2013-04-04 20:03:00,
2013-04-04 13:08:00,60.1,46.6,29.76,South,180,0.0,0.0,61,0.00,CLR,FEW,0.00,WeatherDisplay:10.37,2013-04-04 20:08:00,
2013-04-04 13:13:00,60.1,46.6,29.76,South,180,0.0,0.0,61,0.00,CLR,FEW,0.00,WeatherDisplay:10.37,2013-04-04 20:13:00,
2013-04-04 13:18:00,60.4,46.9,29.76,South,180,0.0,0.0,61,0.00,CLR,FEW,0.00,WeatherDisplay:10.37,2013-04-04 20:18:00,
2013-04-04 13:23:00,60.6,46.7,29.76,South,180,0.0,0.0,60,0.00,CLR,FEW,0.00,WeatherDisplay:10.37,2013-04-04 20:23:00,
2013-04-04 13:28:00,60.6,46.7,29.76,South,180,0.0,0.0,60,0.00,CLR,FEW,0.00,WeatherDisplay:10.37,2013-04-04 20:28:00,
2013-04-04 13:33:00,61.0,47.0,29.76,SW,225,0.0,0.0,60,0.00,CLR,FEW,0.00,WeatherDisplay:10.37,2013-04-04 20:33:00,
2013-04-04 13:38:00,61.0,47.0,29.75,SW,225,0.0,0.0,60,0.00,CLR,FEW,0.00,WeatherDisplay:10.37,2013-04-04 20:38:00,
2013-04-04 13:43:00,60.8,46.4,29.76,SW,225,0.0,0.0,59,0.00,CLR,FEW,0.00,WeatherDisplay:10.37,2013-04-04 20:43:00,
2013-04-04 13:48:00,61.0,47.0,29.76,SSW,202,0.0,0.0,60,0.00,CLR,FEW,0.00,WeatherDisplay:10.37,2013-04-04 20:48:00,
2013-04-04 13:53:00,61.0,47.0,29.76,SSW,202,0.0,0.0,60,0.00,CLR,FEW,0.00,WeatherDisplay:10.37,2013-04-04 20:53:00,
2013-04-04 13:58:00,61.0,46.5,29.75,SW,225,0.0,0.0,59,0.00,CLR,FEW,0.00,WeatherDisplay:10.37,2013-04-04 20:58:00,
2013-04-04 14:03:00,61.0,46.5,29.75,ENE,68,0.0,0.0,59,0.00,CLR,FEW,0.00,WeatherDisplay:10.37,2013-04-04 21:03:00,
2013-04-04 14:08:00,61.0,47.0,29.75,ENE,68,0.0,0.0,60,0.00,CLR,FEW,0.00,WeatherDisplay:10.37,2013-04-04 21:08:00,
2013-04-04 14:13:00,61.0,46.5,29.76,WSW,248,0.0,0.0,59,0.00,CLR,FEW,0.00,WeatherDisplay:10.37,2013-04-04 21:13:00,
2013-04-04 14:18:00,61.3,46.9,29.76,SW,225,0.0,0.0,59,0.00,CLR,FEW,0.00,WeatherDisplay:10.37,2013-04-04 21:18:00,
2013-04-04 14:23:00,61.3,47.3,29.76,SW,225,0.0,0.0,60,0.00,CLR,FEW,0.00,WeatherDisplay:10.37,2013-04-04 21:23:00,
2013-04-04 14:28:00,61.3,47.3,29.76,SW,225,0.0,0.0,60,0.00,CLR,FEW,0.00,WeatherDisplay:10.37,2013-04-04 21:28:00,
2013-04-04 14:33:00,61.3,47.3,29.76,South,180,0.0,0.0,60,0.00,CLR,FEW,0.00,WeatherDisplay:10.37,2013-04-04 21:33:00,
2013-04-04 14:38:00,61.0,47.4,29.76,SSE,158,0.0,0.0,61,0.00,CLR,FEW,0.00,WeatherDisplay:10.37,2013-04-04 21:38:00,
2013-04-04 14:43:00,60.6,47.9,29.77,SE,135,0.0,0.0,63,0.00,CLR,FEW,0.00,WeatherDisplay:10.37,2013-04-04 21:43:00,
2013-04-04 14:49:00,60.4,47.4,29.77,SE,135,0.0,0.0,62,0.00,CLR,FEW,0.00,WeatherDisplay:10.37,2013-04-04 21:49:00,
2013-04-04 14:54:00,60.4,47.4,29.77,SE,135,0.0,0.0,62,0.00,CLR,FEW,0.00,WeatherDisplay:10.37,2013-04-04 21:54:00,
2013-04-04 14:59:00,60.4,47.4,29.77,SE,135,0.0,0.0,62,0.00,CLR,FEW,0.00,WeatherDisplay:10.37,2013-04-04 21:59:00,
2013-04-04 15:04:00,60.6,47.5,29.76,SE,135,0.0,0.0,62,0.00,CLR,FEW,0.00,WeatherDisplay:10.37,2013-04-04 22:04:00,
2013-04-04 15:09:00,60.6,47.9,29.76,ESE,112,0.0,0.0,63,0.00,CLR,FEW,0.00,WeatherDisplay:10.37,2013-04-04 22:09:00,
2013-04-04 15:14:00,60.4,47.8,29.75,ESE,112,0.0,0.0,63,0.00,CLR,FEW,0.00,WeatherDisplay:10.37,2013-04-04 22:14:00,
2013-04-04 15:19:00,60.6,48.4,29.74,ESE,112,0.0,0.0,64,0.00,CLR,FEW,0.00,WeatherDisplay:10.37,2013-04-04 22:19:00,
2013-04-04 15:24:00,60.6,48.4,29.74,South,180,0.0,0.0,64,0.00,CLR,FEW,0.00,WeatherDisplay:10.37,2013-04-04 22:24:00,
2013-04-04 15:30:00,60.6,49.2,29.73,South,180,1.6,1.6,66,0.00,CLR,FEW,0.00,WeatherDisplay:10.37,2013-04-04 22:30:00,
2013-04-04 15:35:00,60.1,49.1,29.74,SSE,158,3.5,3.5,67,0.00,CLR,FEW,0.00,WeatherDisplay:10.37,2013-04-04 22:35:00,
2013-04-04 15:40:00,59.9,49.3,29.74,SSE,158,0.0,0.0,68,0.00,CLR,FEW,0.00,WeatherDisplay:10.37,2013-04-04 22:40:00,
2013-04-04 15:45:00,59.7,49.1,29.74,SSE,158,0.0,0.0,68,0.00,CLR,FEW,0.00,WeatherDisplay:10.37,2013-04-04 22:45:00,
2013-04-04 15:50:00,59.2,49.0,29.74,SE,135,0.0,0.0,69,0.00,CLR,FEW,0.00,WeatherDisplay:10.37,2013-04-04 22:50:00,
2013-04-04 15:55:00,58.8,48.7,29.74,SE,135,0.0,0.0,69,0.00,CLR,FEW,0.00,WeatherDisplay:10.37,2013-04-04 22:55:00,
2013-04-04 16:00:00,58.8,48.7,29.74,SE,135,0.0,0.0,69,0.00,CLR,FEW,0.00,WeatherDisplay:10.37,2013-04-04 23:00:00,
2013-04-04 16:05:00,59.0,49.2,29.74,SE,135,0.0,0.0,70,0.00,CLR,FEW,0.00,WeatherDisplay:10.37,2013-04-04 23:05:00,
2013-04-04 16:10:00,58.8,49.1,29.74,SE,135,0.0,0.0,70,0.00,CLR,FEW,0.00,WeatherDisplay:10.37,2013-04-04 23:10:00,
2013-04-04 16:15:00,58.8,49.1,29.74,SE,135,0.0,0.0,70,0.00,CLR,FEW,0.00,WeatherDisplay:10.37,2013-04-04 23:15:00,
2013-04-04 16:20:00,58.8,49.1,29.74,NNW,338,3.5,3.5,70,0.00,CLR,FEW,0.00,WeatherDisplay:10.37,2013-04-04 23:20:00,
2013-04-04 16:25:00,58.8,49.1,29.74,NNW,338,0.0,0.0,70,0.00,CLR,FEW,0.00,WeatherDisplay:10.37,2013-04-04 23:25:00,
2013-04-04 16:30:00,58.8,48.7,29.74,NNW,338,0.0,0.0,69,0.00,CLR,FEW,0.00,WeatherDisplay:10.37,2013-04-04 23:30:00,
2013-04-04 16:35:00,58.8,48.7,29.74,NNW,338,0.0,0.0,69,0.00,CLR,FEW,0.00,WeatherDisplay:10.37,2013-04-04 23:35:00,
2013-04-04 16:40:00,58.8,49.1,29.74,NNW,338,0.0,0.0,70,0.00,CLR,FEW,0.00,WeatherDisplay:10.37,2013-04-04 23:40:00,
2013-04-04 16:46:00,58.8,49.1,29.74,North,0,0.0,0.0,70,0.00,CLR,FEW,0.00,WeatherDisplay:10.37,2013-04-04 23:46:00,
2013-04-04 16:51:00,58.8,49.4,29.74,SSE,158,1.3,1.3,71,0.00,CLR,FEW,0.00,WeatherDisplay:10.37,2013-04-04 23:51:00,
2013-04-04 16:56:00,58.8,49.8,29.73,SSE,158,0.4,0.4,72,0.00,CLR,FEW,0.00,WeatherDisplay:10.37,2013-04-04 23:56:00,
2013-04-04 17:01:00,58.8,49.8,29.72,SSE,158,0.0,0.0,72,0.00,CLR,FEW,0.00,WeatherDisplay:10.37,2013-04-05 00:01:00,
2013-04-04 17:06:00,58.8,49.4,29.73,SSE,158,0.0,0.0,71,0.00,CLR,FEW,0.00,WeatherDisplay:10.37,2013-04-05 00:06:00,
2013-04-04 17:11:00,59.5,50.1,29.73,SSE,158,0.0,0.0,71,0.00,CLR,FEW,0.00,WeatherDisplay:10.37,2013-04-05 00:11:00,
2013-04-04 17:16:00,59.7,50.3,29.73,SW,225,0.0,0.0,71,0.00,CLR,FEW,0.00,WeatherDisplay:10.37,2013-04-05 00:16:00,
2013-04-04 17:21:00,60.1,50.3,29.73,SW,225,0.0,0.0,70,0.00,CLR,FEW,0.00,WeatherDisplay:10.37,2013-04-05 00:21:00,
2013-04-04 17:26:00,60.1,49.9,29.72,SW,225,0.0,0.0,69,0.00,CLR,FEW,0.00,WeatherDisplay:10.37,2013-04-05 00:26:00,
2013-04-04 17:31:00,60.1,49.9,29.72,NNW,338,3.5,3.5,69,0.00,CLR,FEW,0.00,WeatherDisplay:10.37,2013-04-05 00:31:00,
2013-04-04 17:36:00,60.1,49.9,29.72,NW,315,4.7,4.7,69,0.00,CLR,FEW,0.00,WeatherDisplay:10.37,2013-04-05 00:36:00,
2013-04-04 17:41:00,60.1,49.9,29.72,NNW,338,2.3,2.4,69,0.00,CLR,FEW,0.00,WeatherDisplay:10.37,2013-04-05 00:41:00,
2013-04-04 17:46:00,60.1,49.5,29.72,NW,315,0.0,0.0,68,0.00,CLR,FEW,0.00,WeatherDisplay:10.37,2013-04-05 00:46:00,
2013-04-04 17:51:00,60.1,49.5,29.72,NW,315,0.0,0.0,68,0.00,CLR,FEW,0.00,WeatherDisplay:10.37,2013-04-05 00:51:00,
2013-04-04 17:56:00,60.1,49.9,29.72,NW,315,0.0,0.0,69,0.00,CLR,FEW,0.00,WeatherDisplay:10.37,2013-04-05 00:56:00,
2013-04-04 18:01:00,59.7,49.5,29.72,NW,315,0.0,0.0,69,0.00,CLR,FEW,0.00,WeatherDisplay:10.37,2013-04-05 01:01:00,
2013-04-04 18:06:00,59.7,49.5,29.72,NW,315,0.0,0.0,69,0.00,CLR,FEW,0.00,WeatherDisplay:10.37,2013-04-05 01:06:00,
2013-04-04 18:11:00,59.5,49.7,29.72,NW,315,0.0,0.0,70,0.00,CLR,FEW,0.00,WeatherDisplay:10.37,2013-04-05 01:11:00,
2013-04-04 18:16:00,59.5,49.7,29.73,NW,315,0.0,0.0,70,0.00,CLR,FEW,0.00,WeatherDisplay:10.37,2013-04-05 01:16:00,
2013-04-04 18:21:00,59.4,49.2,29.73,NNW,338,7.2,7.2,69,0.00,CLR,FEW,0.00,WeatherDisplay:10.37,2013-04-05 01:21:00,
2013-04-04 18:26:00,59.4,48.8,29.73,WNW,292,8.1,8.1,68,0.00,CLR,FEW,0.00,WeatherDisplay:10.37,2013-04-05 01:26:00,
2013-04-04 18:31:00,58.8,47.5,29.72,North,0,13.0,13.0,66,0.00,CLR,FEW,0.00,WeatherDisplay:10.37,2013-04-05 01:31:00,
2013-04-04 18:36:00,59.2,47.4,29.72,NNW,338,10.4,10.4,65,0.00,CLR,FEW,0.00,WeatherDisplay:10.37,2013-04-05 01:36:00,
2013-04-04 18:41:00,59.2,47.4,29.72,NNE,22,10.4,10.4,65,0.00,CLR,FEW,0.00,WeatherDisplay:10.37,2013-04-05 01:41:00,
2013-04-04 18:46:00,59.2,47.4,29.72,North,0,0.0,0.0,65,0.00,CLR,FEW,0.00,WeatherDisplay:10.37,2013-04-05 01:46:00,
2013-04-04 18:51:00,58.8,47.1,29.72,NE,45,0.0,0.0,65,0.00,CLR,FEW,0.00,WeatherDisplay:10.37,2013-04-05 01:51:00,
2013-04-04 18:56:00,58.8,47.1,29.71,NE,45,0.0,0.0,65,0.00,CLR,FEW,0.00,WeatherDisplay:10.37,2013-04-05 01:56:00,
2013-04-04 19:01:00,58.8,47.1,29.71,NE,45,0.0,0.0,65,0.00,CLR,FEW,0.00,WeatherDisplay:10.37,2013-04-05 02:01:00,
2013-04-04 19:06:00,58.6,46.9,29.71,NE,45,0.0,0.0,65,0.00,CLR,FEW,0.00,WeatherDisplay:10.37,2013-04-05 02:06:00,
2013-04-04 19:11:00,58.3,47.0,29.71,NE,45,0.0,0.0,66,0.00,CLR,FEW,0.00,WeatherDisplay:10.37,2013-04-05 02:11:00,
2013-04-04 19:16:00,57.9,46.6,29.71,NE,45,0.0,0.0,66,0.00,CLR,FEW,0.00,WeatherDisplay:10.37,2013-04-05 02:16:00,
2013-04-04 19:21:00,57.7,46.9,29.71,NE,45,0.0,0.0,67,0.00,CLR,FEW,0.00,WeatherDisplay:10.37,2013-04-05 02:21:00,
2013-04-04 19:26:00,57.4,46.5,29.71,NE,45,0.0,0.0,67,0.00,CLR,FEW,0.00,WeatherDisplay:10.37,2013-04-05 02:26:00,
2013-04-04 19:31:00,56.8,46.0,29.71,NE,45,0.0,0.0,67,0.00,CLR,FEW,0.00,WeatherDisplay:10.37,2013-04-05 02:31:00,
2013-04-04 19:36:00,56.3,45.9,29.71,ESE,112,0.0,0.0,68,0.00,CLR,FEW,0.00,WeatherDisplay:10.37,2013-04-05 02:36:00,
2013-04-04 19:41:00,55.6,45.6,29.71,WSW,248,0.0,0.0,69,0.00,CLR,FEW,0.00,WeatherDisplay:10.37,2013-04-05 02:41:00,
2013-04-04 19:46:00,55.4,45.4,29.71,WSW,248,0.0,0.0,69,0.00,CLR,FEW,0.00,WeatherDisplay:10.37,2013-04-05 02:46:00,
2013-04-04 19:51:00,55.2,45.2,29.72,WSW,248,0.0,0.0,69,0.00,CLR,FEW,0.00,WeatherDisplay:10.37,2013-04-05 02:51:00,
2013-04-04 19:56:00,54.1,44.9,29.72,SSE,158,0.0,0.0,71,0.00,CLR,FEW,0.00,WeatherDisplay:10.37,2013-04-05 02:56:00,
2013-04-04 20:01:00,53.8,44.6,29.71,SSE,158,0.0,0.0,71,0.00,CLR,FEW,0.00,WeatherDisplay:10.37,2013-04-05 03:01:00,
2013-04-04 20:06:00,53.2,44.4,29.71,SSE,158,0.0,0.0,72,0.00,CLR,FEW,0.00,WeatherDisplay:10.37,2013-04-05 03:06:00,
2013-04-04 20:11:00,52.5,44.1,29.71,SSE,158,0.0,0.0,73,0.00,CLR,FEW,0.00,WeatherDisplay:10.37,2013-04-05 03:11:00,
2013-04-04 20:16:00,52.3,43.9,29.72,SSE,158,0.0,0.0,73,0.00,CLR,FEW,0.00,WeatherDisplay:10.37,2013-04-05 03:16:00,
2013-04-04 20:22:00,52.0,43.6,29.72,SSE,158,0.0,0.0,73,0.00,CLR,FEW,0.00,WeatherDisplay:10.37,2013-04-05 03:22:00,
2013-04-04 20:27:00,51.6,43.6,29.72,SSE,158,0.0,0.0,74,0.00,CLR,FEW,0.00,WeatherDisplay:10.37,2013-04-05 03:27:00,
2013-04-04 20:32:00,51.1,43.4,29.72,SSE,158,0.0,0.0,75,0.00,CLR,FEW,0.00,WeatherDisplay:10.37,2013-04-05 03:32:00,
2013-04-04 20:37:00,50.7,43.4,29.72,SSE,158,0.0,0.0,76,0.00,CLR,FEW,0.00,WeatherDisplay:10.37,2013-04-05 03:37:00,
2013-04-04 20:42:00,50.5,43.3,29.72,SSE,158,0.0,0.0,76,0.00,CLR,FEW,0.00,WeatherDisplay:10.37,2013-04-05 03:42:00,
2013-04-04 20:47:00,50.4,43.1,29.72,SSE,158,0.0,0.0,76,0.00,CLR,FEW,0.00,WeatherDisplay:10.37,2013-04-05 03:47:00,
2013-04-04 20:52:00,49.8,42.6,29.72,SSE,158,0.0,0.0,76,0.00,CLR,FEW,0.00,WeatherDisplay:10.37,2013-04-05 03:52:00,
2013-04-04 20:57:00,49.6,42.7,29.72,SSE,158,0.0,0.0,77,0.00,CLR,FEW,0.00,WeatherDisplay:10.37,2013-04-05 03:57:00,
2013-04-04 21:00:00,49.3,42.4,29.72,SSE,158,0.0,0.0,77,0.00,CLR,FEW,0.00,WeatherDisplay:10.37,2013-04-05 04:00:00,
2013-04-04 21:05:00,49.1,42.5,29.72,SSE,158,0.0,0.0,78,0.00,CLR,FEW,0.00,WeatherDisplay:10.37,2013-04-05 04:05:00,
2013-04-04 21:10:00,48.7,41.8,29.72,SSE,158,0.0,0.0,77,0.00,CLR,FEW,0.00,WeatherDisplay:10.37,2013-04-05 04:10:00,
2013-04-04 21:15:00,48.4,41.8,29.72,SSE,158,0.0,0.0,78,0.00,CLR,FEW,0.00,WeatherDisplay:10.37,2013-04-05 04:15:00,
2013-04-04 21:20:00,48.2,42.0,29.72,SSE,158,0.0,0.0,79,0.00,CLR,FEW,0.00,WeatherDisplay:10.37,2013-04-05 04:20:00,
2013-04-04 21:25:00,48.0,41.8,29.72,SSE,158,0.0,0.0,79,0.00,CLR,FEW,0.00,WeatherDisplay:10.37,2013-04-05 04:25:00,
2013-04-04 21:30:00,48.0,41.8,29.73,SSE,158,0.0,0.0,79,0.00,CLR,FEW,0.00,WeatherDisplay:10.37,2013-04-05 04:30:00,
2013-04-04 21:35:00,47.8,42.0,29.73,SSE,158,0.0,0.0,80,0.00,CLR,FEW,0.00,WeatherDisplay:10.37,2013-04-05 04:35:00,
2013-04-04 21:40:00,47.8,42.0,29.73,SSE,158,0.0,0.0,80,0.00,CLR,FEW,0.00,WeatherDisplay:10.37,2013-04-05 04:40:00,
2013-04-04 21:45:00,47.8,42.0,29.73,SSE,158,0.0,0.0,80,0.00,CLR,FEW,0.00,WeatherDisplay:10.37,2013-04-05 04:45:00,
2013-04-04 21:50:00,47.8,42.0,29.74,SSE,158,0.0,0.0,80,0.00,CLR,FEW,0.00,WeatherDisplay:10.37,2013-04-05 04:50:00,
2013-04-04 21:55:00,47.8,42.3,29.74,SSE,158,0.0,0.0,81,0.00,CLR,FEW,0.00,WeatherDisplay:10.37,2013-04-05 04:55:00,
2013-04-04 22:00:00,47.8,42.3,29.74,SSE,158,0.0,0.0,81,0.00,CLR,FEW,0.00,WeatherDisplay:10.37,2013-04-05 05:00:00,
2013-04-04 22:05:00,47.7,42.1,29.75,SSE,158,0.0,0.0,81,0.00,CLR,FEW,0.00,WeatherDisplay:10.37,2013-04-05 05:05:00,
2013-04-04 22:10:00,47.8,42.6,29.79,NW,315,5.8,5.8,82,0.00,CLR,FEW,0.00,WeatherDisplay:10.37,2013-04-05 05:10:00,
2013-04-04 22:15:00,48.0,42.8,29.79,NW,315,0.0,0.0,82,0.00,CLR,FEW,0.00,WeatherDisplay:10.37,2013-04-05 05:15:00,
2013-04-04 22:20:00,48.0,43.1,29.81,SE,135,0.0,0.0,83,0.00,CLR,FEW,0.00,WeatherDisplay:10.37,2013-04-05 05:20:00,
2013-04-04 22:25:00,48.4,43.5,29.81,ESE,112,0.0,0.0,83,0.00,CLR,FEW,0.00,WeatherDisplay:10.37,2013-04-05 05:25:00,
2013-04-04 22:30:00,48.9,44.3,29.82,ESE,112,0.0,0.0,84,0.00,CLR,FEW,0.00,WeatherDisplay:10.37,2013-04-05 05:30:00,
2013-04-04 22:35:00,49.8,45.2,29.82,NW,315,6.9,6.9,84,0.00,CLR,FEW,0.00,WeatherDisplay:10.37,2013-04-05 05:35:00,
2013-04-04 22:40:00,50.5,45.9,29.83,East,90,0.0,0.0,84,0.00,CLR,FEW,0.00,WeatherDisplay:10.37,2013-04-05 05:40:00,
2013-04-04 22:45:00,50.9,46.2,29.83,SE,135,5.8,5.8,84,0.02,RA,FEW,0.02,WeatherDisplay:10.37,2013-04-05 05:45:00,
2013-04-04 22:50:00,50.9,46.2,29.83,ESE,112,4.5,4.5,84,0.02,RA,FEW,0.02,WeatherDisplay:10.37,2013-04-05 05:50:00,
2013-04-04 22:55:00,50.7,46.4,29.83,ESE,112,2.3,0.0,85,0.02,CLR,FEW,0.02,WeatherDisplay:10.37,2013-04-05 05:55:00,
2013-04-04 23:00:00,50.7,46.4,29.83,ESE,112,0.0,0.0,85,0.02,CLR,FEW,0.02,WeatherDisplay:10.37,2013-04-05 06:00:00,
2013-04-04 23:05:00,51.1,46.4,29.83,ESE,112,0.0,0.0,84,0.02,CLR,FEW,0.02,WeatherDisplay:10.37,2013-04-05 06:05:00,
2013-04-04 23:10:00,51.1,46.4,29.84,ESE,112,0.0,0.0,84,0.02,CLR,FEW,0.02,WeatherDisplay:10.37,2013-04-05 06:10:00,
2013-04-04 23:15:00,51.3,46.3,29.84,East,90,0.0,0.0,83,0.02,CLR,FEW,0.02,WeatherDisplay:10.37,2013-04-05 06:15:00,
2013-04-04 23:20:00,51.3,46.3,29.84,East,90,0.0,0.0,83,0.02,CLR,FEW,0.02,WeatherDisplay:10.37,2013-04-05 06:20:00,
2013-04-04 23:25:00,51.1,45.8,29.84,East,90,0.0,0.0,82,0.02,CLR,FEW,0.02,WeatherDisplay:10.37,2013-04-05 06:25:00,
2013-04-04 23:30:00,51.1,45.8,29.83,East,90,0.0,0.0,82,0.02,CLR,FEW,0.02,WeatherDisplay:10.37,2013-04-05 06:30:00,
2013-04-04 23:35:00,50.9,45.6,29.84,East,90,0.0,0.0,82,0.02,CLR,FEW,0.02,WeatherDisplay:10.37,2013-04-05 06:35:00,
2013-04-04 23:40:00,50.7,45.7,29.84,East,90,0.0,0.0,83,0.02,CLR,FEW,0.02,WeatherDisplay:10.37,2013-04-05 06:40:00,
2013-04-04 23:45:00,50.7,45.7,29.84,SE,135,0.0,0.0,83,0.02,RA,FEW,0.04,WeatherDisplay:10.37,2013-04-05 06:45:00,
2013-04-04 23:50:00,50.7,45.7,29.84,South,180,5.6,5.6,83,0.02,RA,FEW,0.04,WeatherDisplay:10.37,2013-04-05 06:50:00,
2013-04-04 23:55:00,50.5,45.9,29.85,South,180,12.7,12.7,84,0.02,CLR,FEW,0.04,WeatherDisplay:10.37,2013-04-05 06:55:00,